sensor_id;sensor_type;location;lat;lon;timestamp;P1;durP1;ratioP1;P2;durP2;ratioP2
4829;SDS011;2429;52.586;14.322;2024-03-07T00:00:11;53.85;;;24.17;;
4829;SDS011;2429;52.586;14.322;2024-03-07T00:05:40;57.78;;;24.63;;
4829;SDS011;2429;52.586;14.322;2024-03-07T00:10:44;59.08;;;26.65;;
4829;SDS011;2429;52.586;14.322;2024-03-07T00:15:49;56.38;;;25.15;;
4829;SDS011;2429;52.586;14.322;2024-03-07T00:20:52;58.00;;;24.33;;
4829;SDS011;2429;52.586;14.322;2024-03-07T00:25:56;61.78;;;23.83;;
4829;SDS011;2429;52.586;14.322;2024-03-07T00:31:01;55.30;;;22.95;;
4829;SDS011;2429;52.586;14.322;2024-03-07T00:36:05;61.45;;;27.42;;
4829;SDS011;2429;52.586;14.322;2024-03-07T00:41:08;57.80;;;23.75;;
4829;SDS011;2429;52.586;14.322;2024-03-07T00:46:13;47.83;;;21.58;;
4829;SDS011;2429;52.586;14.322;2024-03-07T00:56:20;54.45;;;22.85;;
4829;SDS011;2429;52.586;14.322;2024-03-07T01:01:25;49.10;;;20.67;;
4829;SDS011;2429;52.586;14.322;2024-03-07T01:06:28;46.85;;;22.45;;
4829;SDS011;2429;52.586;14.322;2024-03-07T01:11:31;44.22;;;20.90;;
4829;SDS011;2429;52.586;14.322;2024-03-07T01:16:36;49.45;;;22.15;;
4829;SDS011;2429;52.586;14.322;2024-03-07T01:26:42;38.95;;;18.85;;
4829;SDS011;2429;52.586;14.322;2024-03-07T01:31:46;40.10;;;18.13;;
4829;SDS011;2429;52.586;14.322;2024-03-07T01:36:51;35.80;;;17.60;;
4829;SDS011;2429;52.586;14.322;2024-03-07T01:41:54;35.65;;;16.98;;
4829;SDS011;2429;52.586;14.322;2024-03-07T01:46:58;30.48;;;17.02;;
4829;SDS011;2429;52.586;14.322;2024-03-07T01:52:05;34.78;;;16.10;;
4829;SDS011;2429;52.586;14.322;2024-03-07T01:57:09;31.02;;;15.90;;
4829;SDS011;2429;52.586;14.322;2024-03-07T02:02:14;30.08;;;15.93;;
4829;SDS011;2429;52.586;14.322;2024-03-07T02:07:17;30.88;;;16.10;;
4829;SDS011;2429;52.586;14.322;2024-03-07T02:12:21;30.00;;;16.13;;
4829;SDS011;2429;52.586;14.322;2024-03-07T02:17:28;32.03;;;17.00;;
4829;SDS011;2429;52.586;14.322;2024-03-07T02:22:33;31.50;;;16.05;;
4829;SDS011;2429;52.586;14.322;2024-03-07T02:27:36;32.80;;;17.15;;
4829;SDS011;2429;52.586;14.322;2024-03-07T02:32:39;27.83;;;14.90;;
4829;SDS011;2429;52.586;14.322;2024-03-07T02:37:44;28.90;;;15.48;;
4829;SDS011;2429;52.586;14.322;2024-03-07T02:42:47;31.00;;;15.85;;
4829;SDS011;2429;52.586;14.322;2024-03-07T02:47:51;26.65;;;14.80;;
4829;SDS011;2429;52.586;14.322;2024-03-07T02:59:00;27.98;;;15.00;;
4829;SDS011;2429;52.586;14.322;2024-03-07T03:04:05;30.38;;;13.98;;
4829;SDS011;2429;52.586;14.322;2024-03-07T03:09:26;23.55;;;13.07;;
4829;SDS011;2429;52.586;14.322;2024-03-07T03:14:31;24.90;;;14.43;;
4829;SDS011;2429;52.586;14.322;2024-03-07T03:19:35;25.83;;;14.15;;
4829;SDS011;2429;52.586;14.322;2024-03-07T03:24:38;26.27;;;13.60;;
4829;SDS011;2429;52.586;14.322;2024-03-07T03:29:44;24.95;;;13.38;;
4829;SDS011;2429;52.586;14.322;2024-03-07T03:34:49;26.38;;;14.32;;
4829;SDS011;2429;52.586;14.322;2024-03-07T03:39:54;23.25;;;13.13;;
4829;SDS011;2429;52.586;14.322;2024-03-07T03:44:58;25.35;;;13.32;;
4829;SDS011;2429;52.586;14.322;2024-03-07T03:50:02;22.92;;;12.55;;
4829;SDS011;2429;52.586;14.322;2024-03-07T04:00:13;23.52;;;13.07;;
4829;SDS011;2429;52.586;14.322;2024-03-07T04:05:18;26.67;;;13.15;;
4829;SDS011;2429;52.586;14.322;2024-03-07T04:10:23;24.98;;;13.63;;
4829;SDS011;2429;52.586;14.322;2024-03-07T04:15:28;27.40;;;13.85;;
4829;SDS011;2429;52.586;14.322;2024-03-07T04:20:38;24.83;;;13.25;;
4829;SDS011;2429;52.586;14.322;2024-03-07T04:25:42;22.50;;;12.32;;
4829;SDS011;2429;52.586;14.322;2024-03-07T04:30:46;21.98;;;12.60;;
4829;SDS011;2429;52.586;14.322;2024-03-07T04:35:51;23.55;;;12.77;;
4829;SDS011;2429;52.586;14.322;2024-03-07T04:40:56;25.83;;;13.15;;
4829;SDS011;2429;52.586;14.322;2024-03-07T04:46:01;24.88;;;12.18;;
4829;SDS011;2429;52.586;14.322;2024-03-07T04:51:04;24.83;;;12.35;;
4829;SDS011;2429;52.586;14.322;2024-03-07T04:56:07;24.58;;;12.95;;
4829;SDS011;2429;52.586;14.322;2024-03-07T05:01:12;25.25;;;13.07;;
4829;SDS011;2429;52.586;14.322;2024-03-07T05:06:16;24.35;;;12.07;;
4829;SDS011;2429;52.586;14.322;2024-03-07T05:11:20;25.77;;;13.32;;
4829;SDS011;2429;52.586;14.322;2024-03-07T05:16:25;25.33;;;11.88;;
4829;SDS011;2429;52.586;14.322;2024-03-07T05:26:39;24.48;;;12.05;;
4829;SDS011;2429;52.586;14.322;2024-03-07T05:31:44;23.85;;;13.00;;
4829;SDS011;2429;52.586;14.322;2024-03-07T05:36:48;22.42;;;12.38;;
4829;SDS011;2429;52.586;14.322;2024-03-07T05:41:52;23.27;;;12.15;;
4829;SDS011;2429;52.586;14.322;2024-03-07T05:47:00;23.95;;;12.60;;
4829;SDS011;2429;52.586;14.322;2024-03-07T05:52:04;21.15;;;11.00;;
4829;SDS011;2429;52.586;14.322;2024-03-07T05:57:08;23.25;;;12.70;;
4829;SDS011;2429;52.586;14.322;2024-03-07T06:02:13;21.73;;;12.25;;
4829;SDS011;2429;52.586;14.322;2024-03-07T06:07:17;23.20;;;12.02;;
4829;SDS011;2429;52.586;14.322;2024-03-07T06:12:20;25.10;;;11.85;;
4829;SDS011;2429;52.586;14.322;2024-03-07T06:17:30;22.48;;;12.35;;
4829;SDS011;2429;52.586;14.322;2024-03-07T06:22:33;19.50;;;11.15;;
4829;SDS011;2429;52.586;14.322;2024-03-07T06:27:37;19.13;;;11.18;;
4829;SDS011;2429;52.586;14.322;2024-03-07T06:32:50;22.27;;;12.75;;
4829;SDS011;2429;52.586;14.322;2024-03-07T06:37:54;21.85;;;11.95;;
4829;SDS011;2429;52.586;14.322;2024-03-07T06:42:57;20.83;;;11.55;;
4829;SDS011;2429;52.586;14.322;2024-03-07T06:48:02;24.88;;;11.73;;
4829;SDS011;2429;52.586;14.322;2024-03-07T06:53:06;22.65;;;10.80;;
4829;SDS011;2429;52.586;14.322;2024-03-07T06:58:10;24.83;;;11.88;;
4829;SDS011;2429;52.586;14.322;2024-03-07T07:03:15;18.90;;;9.73;;
4829;SDS011;2429;52.586;14.322;2024-03-07T07:08:18;19.95;;;10.05;;
4829;SDS011;2429;52.586;14.322;2024-03-07T07:13:21;19.65;;;12.10;;
4829;SDS011;2429;52.586;14.322;2024-03-07T07:18:26;20.88;;;12.27;;
4829;SDS011;2429;52.586;14.322;2024-03-07T07:28:33;21.52;;;11.80;;
4829;SDS011;2429;52.586;14.322;2024-03-07T07:33:39;26.80;;;14.00;;
4829;SDS011;2429;52.586;14.322;2024-03-07T07:38:42;29.15;;;15.48;;
4829;SDS011;2429;52.586;14.322;2024-03-07T07:43:45;38.92;;;21.02;;
4829;SDS011;2429;52.586;14.322;2024-03-07T07:48:51;43.47;;;22.77;;
4829;SDS011;2429;52.586;14.322;2024-03-07T07:53:54;42.13;;;22.02;;
4829;SDS011;2429;52.586;14.322;2024-03-07T07:58:58;41.20;;;20.75;;
4829;SDS011;2429;52.586;14.322;2024-03-07T08:04:03;38.17;;;18.98;;
4829;SDS011;2429;52.586;14.322;2024-03-07T08:09:06;34.45;;;19.65;;
4829;SDS011;2429;52.586;14.322;2024-03-07T08:14:12;33.67;;;18.92;;
4829;SDS011;2429;52.586;14.322;2024-03-07T08:19:17;31.33;;;16.45;;
4829;SDS011;2429;52.586;14.322;2024-03-07T08:24:20;29.08;;;15.65;;
4829;SDS011;2429;52.586;14.322;2024-03-07T08:29:23;28.30;;;15.52;;
4829;SDS011;2429;52.586;14.322;2024-03-07T08:34:28;28.48;;;15.68;;
4829;SDS011;2429;52.586;14.322;2024-03-07T08:39:31;27.42;;;13.93;;
4829;SDS011;2429;52.586;14.322;2024-03-07T08:44:34;25.58;;;14.15;;
4829;SDS011;2429;52.586;14.322;2024-03-07T08:49:39;23.77;;;13.95;;
4829;SDS011;2429;52.586;14.322;2024-03-07T08:59:46;27.38;;;13.60;;
4829;SDS011;2429;52.586;14.322;2024-03-07T09:04:51;24.48;;;13.43;;
4829;SDS011;2429;52.586;14.322;2024-03-07T09:09:55;24.13;;;12.85;;
4829;SDS011;2429;52.586;14.322;2024-03-07T09:14:58;23.42;;;12.65;;
4829;SDS011;2429;52.586;14.322;2024-03-07T09:20:03;23.40;;;13.20;;
4829;SDS011;2429;52.586;14.322;2024-03-07T09:25:09;22.27;;;12.57;;
4829;SDS011;2429;52.586;14.322;2024-03-07T09:30:14;22.50;;;12.68;;
4829;SDS011;2429;52.586;14.322;2024-03-07T09:35:22;21.27;;;11.98;;
4829;SDS011;2429;52.586;14.322;2024-03-07T09:40:26;25.60;;;12.63;;
4829;SDS011;2429;52.586;14.322;2024-03-07T09:45:30;20.55;;;12.13;;
4829;SDS011;2429;52.586;14.322;2024-03-07T09:50:35;24.63;;;13.02;;
4829;SDS011;2429;52.586;14.322;2024-03-07T09:55:40;23.80;;;12.40;;
4829;SDS011;2429;52.586;14.322;2024-03-07T10:00:43;19.52;;;12.57;;
4829;SDS011;2429;52.586;14.322;2024-03-07T10:05:50;21.50;;;12.48;;
4829;SDS011;2429;52.586;14.322;2024-03-07T10:10:54;41.60;;;21.30;;
4829;SDS011;2429;52.586;14.322;2024-03-07T10:15:58;23.27;;;14.45;;
4829;SDS011;2429;52.586;14.322;2024-03-07T10:21:03;20.50;;;12.65;;
4829;SDS011;2429;52.586;14.322;2024-03-07T10:26:07;44.33;;;22.92;;
4829;SDS011;2429;52.586;14.322;2024-03-07T10:31:11;20.70;;;12.60;;
4829;SDS011;2429;52.586;14.322;2024-03-07T10:36:32;16.13;;;11.25;;
4829;SDS011;2429;52.586;14.322;2024-03-07T10:41:35;18.60;;;12.25;;
4829;SDS011;2429;52.586;14.322;2024-03-07T10:46:39;19.95;;;12.48;;
4829;SDS011;2429;52.586;14.322;2024-03-07T10:51:47;19.63;;;11.23;;
4829;SDS011;2429;52.586;14.322;2024-03-07T11:02:15;18.40;;;11.68;;
4829;SDS011;2429;52.586;14.322;2024-03-07T11:07:27;17.45;;;11.15;;
4829;SDS011;2429;52.586;14.322;2024-03-07T11:12:32;21.85;;;12.43;;
4829;SDS011;2429;52.586;14.322;2024-03-07T11:17:36;20.23;;;12.23;;
4829;SDS011;2429;52.586;14.322;2024-03-07T11:22:42;22.02;;;11.23;;
4829;SDS011;2429;52.586;14.322;2024-03-07T11:27:50;21.45;;;10.90;;
4829;SDS011;2429;52.586;14.322;2024-03-07T11:32:55;20.02;;;11.73;;
4829;SDS011;2429;52.586;14.322;2024-03-07T11:43:06;15.70;;;9.60;;
4829;SDS011;2429;52.586;14.322;2024-03-07T11:48:09;21.15;;;12.05;;
4829;SDS011;2429;52.586;14.322;2024-03-07T11:53:14;19.38;;;12.13;;
4829;SDS011;2429;52.586;14.322;2024-03-07T11:58:19;20.75;;;11.90;;
4829;SDS011;2429;52.586;14.322;2024-03-07T12:03:24;18.55;;;11.20;;
4829;SDS011;2429;52.586;14.322;2024-03-07T12:08:30;19.60;;;12.77;;
4829;SDS011;2429;52.586;14.322;2024-03-07T12:13:33;20.55;;;11.18;;
4829;SDS011;2429;52.586;14.322;2024-03-07T12:18:38;18.13;;;10.15;;
4829;SDS011;2429;52.586;14.322;2024-03-07T12:23:43;17.45;;;11.32;;
4829;SDS011;2429;52.586;14.322;2024-03-07T12:28:46;18.15;;;9.93;;
4829;SDS011;2429;52.586;14.322;2024-03-07T12:33:50;19.27;;;11.48;;
4829;SDS011;2429;52.586;14.322;2024-03-07T12:43:59;20.65;;;11.13;;
4829;SDS011;2429;52.586;14.322;2024-03-07T12:49:02;21.27;;;11.63;;
4829;SDS011;2429;52.586;14.322;2024-03-07T12:54:07;17.42;;;10.38;;
4829;SDS011;2429;52.586;14.322;2024-03-07T12:59:11;17.65;;;10.27;;
4829;SDS011;2429;52.586;14.322;2024-03-07T13:04:14;27.10;;;14.38;;
4829;SDS011;2429;52.586;14.322;2024-03-07T13:09:20;24.08;;;12.82;;
4829;SDS011;2429;52.586;14.322;2024-03-07T13:14:28;19.58;;;10.20;;
4829;SDS011;2429;52.586;14.322;2024-03-07T13:19:35;17.23;;;9.80;;
4829;SDS011;2429;52.586;14.322;2024-03-07T13:24:42;19.83;;;11.32;;
4829;SDS011;2429;52.586;14.322;2024-03-07T13:36:21;19.45;;;11.05;;
4829;SDS011;2429;52.586;14.322;2024-03-07T13:41:28;18.88;;;9.77;;
4829;SDS011;2429;52.586;14.322;2024-03-07T13:46:32;18.08;;;11.02;;
4829;SDS011;2429;52.586;14.322;2024-03-07T13:56:47;18.30;;;9.75;;
4829;SDS011;2429;52.586;14.322;2024-03-07T14:02:02;16.95;;;10.05;;
4829;SDS011;2429;52.586;14.322;2024-03-07T14:07:20;20.77;;;10.40;;
4829;SDS011;2429;52.586;14.322;2024-03-07T14:12:48;16.17;;;10.05;;
4829;SDS011;2429;52.586;14.322;2024-03-07T14:24:05;18.60;;;9.98;;
4829;SDS011;2429;52.586;14.322;2024-03-07T14:34:58;16.85;;;9.10;;
4829;SDS011;2429;52.586;14.322;2024-03-07T14:40:08;15.75;;;8.45;;
4829;SDS011;2429;52.586;14.322;2024-03-07T14:45:17;18.63;;;9.45;;
4829;SDS011;2429;52.586;14.322;2024-03-07T14:50:23;16.95;;;9.93;;
4829;SDS011;2429;52.586;14.322;2024-03-07T14:55:30;17.33;;;9.27;;
4829;SDS011;2429;52.586;14.322;2024-03-07T15:00:36;14.30;;;7.70;;
4829;SDS011;2429;52.586;14.322;2024-03-07T15:05:57;16.60;;;9.07;;
4829;SDS011;2429;52.586;14.322;2024-03-07T15:11:02;42.50;;;19.85;;
4829;SDS011;2429;52.586;14.322;2024-03-07T15:16:16;19.98;;;11.13;;
4829;SDS011;2429;52.586;14.322;2024-03-07T15:21:34;37.13;;;19.52;;
4829;SDS011;2429;52.586;14.322;2024-03-07T15:26:39;15.07;;;8.70;;
4829;SDS011;2429;52.586;14.322;2024-03-07T15:31:50;16.52;;;10.52;;
4829;SDS011;2429;52.586;14.322;2024-03-07T15:36:56;15.65;;;9.95;;
4829;SDS011;2429;52.586;14.322;2024-03-07T15:42:03;16.10;;;9.10;;
4829;SDS011;2429;52.586;14.322;2024-03-07T15:47:08;14.88;;;7.97;;
4829;SDS011;2429;52.586;14.322;2024-03-07T15:52:11;32.97;;;14.98;;
4829;SDS011;2429;52.586;14.322;2024-03-07T15:57:15;14.80;;;8.68;;
4829;SDS011;2429;52.586;14.322;2024-03-07T16:02:19;13.85;;;7.43;;
4829;SDS011;2429;52.586;14.322;2024-03-07T16:07:23;14.57;;;8.07;;
4829;SDS011;2429;52.586;14.322;2024-03-07T16:12:27;13.63;;;8.27;;
4829;SDS011;2429;52.586;14.322;2024-03-07T16:17:31;12.60;;;7.55;;
4829;SDS011;2429;52.586;14.322;2024-03-07T16:22:35;19.20;;;9.98;;
4829;SDS011;2429;52.586;14.322;2024-03-07T16:27:39;13.80;;;8.65;;
4829;SDS011;2429;52.586;14.322;2024-03-07T16:32:46;14.75;;;8.80;;
4829;SDS011;2429;52.586;14.322;2024-03-07T16:37:52;16.27;;;9.57;;
4829;SDS011;2429;52.586;14.322;2024-03-07T16:42:57;17.95;;;9.80;;
4829;SDS011;2429;52.586;14.322;2024-03-07T16:48:05;15.73;;;9.48;;
4829;SDS011;2429;52.586;14.322;2024-03-07T16:53:12;37.83;;;19.85;;
4829;SDS011;2429;52.586;14.322;2024-03-07T16:58:18;29.73;;;17.42;;
4829;SDS011;2429;52.586;14.322;2024-03-07T17:03:23;21.67;;;15.45;;
4829;SDS011;2429;52.586;14.322;2024-03-07T17:08:26;19.52;;;12.70;;
4829;SDS011;2429;52.586;14.322;2024-03-07T17:13:30;40.92;;;23.15;;
4829;SDS011;2429;52.586;14.322;2024-03-07T17:18:35;41.72;;;19.98;;
4829;SDS011;2429;52.586;14.322;2024-03-07T17:23:38;86.30;;;43.67;;
4829;SDS011;2429;52.586;14.322;2024-03-07T17:28:41;38.60;;;23.40;;
4829;SDS011;2429;52.586;14.322;2024-03-07T17:33:47;33.03;;;21.10;;
4829;SDS011;2429;52.586;14.322;2024-03-07T17:38:51;28.20;;;17.70;;
4829;SDS011;2429;52.586;14.322;2024-03-07T17:43:55;18.92;;;11.57;;
4829;SDS011;2429;52.586;14.322;2024-03-07T17:49:01;17.17;;;11.68;;
4829;SDS011;2429;52.586;14.322;2024-03-07T17:54:06;15.63;;;10.57;;
4829;SDS011;2429;52.586;14.322;2024-03-07T17:59:09;20.10;;;9.63;;
4829;SDS011;2429;52.586;14.322;2024-03-07T18:04:16;17.10;;;8.90;;
4829;SDS011;2429;52.586;14.322;2024-03-07T18:09:20;17.60;;;9.05;;
4829;SDS011;2429;52.586;14.322;2024-03-07T18:14:30;15.88;;;8.38;;
4829;SDS011;2429;52.586;14.322;2024-03-07T18:19:37;18.70;;;9.38;;
4829;SDS011;2429;52.586;14.322;2024-03-07T18:24:42;17.13;;;9.80;;
4829;SDS011;2429;52.586;14.322;2024-03-07T18:34:51;19.00;;;11.05;;
4829;SDS011;2429;52.586;14.322;2024-03-07T18:44:57;20.13;;;11.80;;
4829;SDS011;2429;52.586;14.322;2024-03-07T18:50:12;19.67;;;11.27;;
4829;SDS011;2429;52.586;14.322;2024-03-07T18:55:16;17.00;;;9.38;;
4829;SDS011;2429;52.586;14.322;2024-03-07T19:00:23;18.08;;;9.82;;
4829;SDS011;2429;52.586;14.322;2024-03-07T19:05:40;18.20;;;11.52;;
4829;SDS011;2429;52.586;14.322;2024-03-07T19:10:45;24.52;;;13.45;;
4829;SDS011;2429;52.586;14.322;2024-03-07T19:15:50;27.38;;;14.15;;
4829;SDS011;2429;52.586;14.322;2024-03-07T19:20:56;23.05;;;13.57;;
4829;SDS011;2429;52.586;14.322;2024-03-07T19:25:59;19.50;;;10.85;;
4829;SDS011;2429;52.586;14.322;2024-03-07T19:31:06;21.27;;;12.57;;
4829;SDS011;2429;52.586;14.322;2024-03-07T19:36:17;19.83;;;11.70;;
4829;SDS011;2429;52.586;14.322;2024-03-07T19:41:20;26.33;;;13.60;;
4829;SDS011;2429;52.586;14.322;2024-03-07T19:46:25;27.35;;;14.10;;
4829;SDS011;2429;52.586;14.322;2024-03-07T19:51:31;26.42;;;13.90;;
4829;SDS011;2429;52.586;14.322;2024-03-07T19:56:34;29.25;;;13.95;;
4829;SDS011;2429;52.586;14.322;2024-03-07T20:01:38;30.67;;;15.48;;
4829;SDS011;2429;52.586;14.322;2024-03-07T20:06:43;24.80;;;13.57;;
4829;SDS011;2429;52.586;14.322;2024-03-07T20:11:47;33.80;;;17.95;;
4829;SDS011;2429;52.586;14.322;2024-03-07T20:16:53;24.08;;;13.05;;
4829;SDS011;2429;52.586;14.322;2024-03-07T20:21:58;24.67;;;13.13;;
4829;SDS011;2429;52.586;14.322;2024-03-07T20:27:01;22.48;;;12.50;;
4829;SDS011;2429;52.586;14.322;2024-03-07T20:32:06;29.25;;;14.85;;
4829;SDS011;2429;52.586;14.322;2024-03-07T20:42:15;26.45;;;14.00;;
4829;SDS011;2429;52.586;14.322;2024-03-07T20:47:19;21.88;;;12.85;;
4829;SDS011;2429;52.586;14.322;2024-03-07T20:52:25;21.63;;;13.48;;
4829;SDS011;2429;52.586;14.322;2024-03-07T20:57:31;35.70;;;19.15;;
4829;SDS011;2429;52.586;14.322;2024-03-07T21:02:34;34.50;;;18.02;;
4829;SDS011;2429;52.586;14.322;2024-03-07T21:07:39;28.00;;;15.50;;
4829;SDS011;2429;52.586;14.322;2024-03-07T21:12:43;28.73;;;15.60;;
4829;SDS011;2429;52.586;14.322;2024-03-07T21:17:47;23.30;;;13.18;;
4829;SDS011;2429;52.586;14.322;2024-03-07T21:22:53;26.40;;;13.45;;
4829;SDS011;2429;52.586;14.322;2024-03-07T21:27:57;27.50;;;14.18;;
4829;SDS011;2429;52.586;14.322;2024-03-07T21:33:01;26.48;;;14.80;;
4829;SDS011;2429;52.586;14.322;2024-03-07T21:38:08;24.17;;;13.40;;
4829;SDS011;2429;52.586;14.322;2024-03-07T21:43:13;27.40;;;14.23;;
4829;SDS011;2429;52.586;14.322;2024-03-07T21:48:16;25.45;;;13.45;;
4829;SDS011;2429;52.586;14.322;2024-03-07T21:53:25;26.75;;;13.07;;
4829;SDS011;2429;52.586;14.322;2024-03-07T21:58:29;28.13;;;13.20;;
4829;SDS011;2429;52.586;14.322;2024-03-07T22:03:32;24.83;;;13.63;;
4829;SDS011;2429;52.586;14.322;2024-03-07T22:08:37;26.05;;;14.65;;
4829;SDS011;2429;52.586;14.322;2024-03-07T22:13:41;24.23;;;13.65;;
4829;SDS011;2429;52.586;14.322;2024-03-07T22:18:45;24.50;;;12.98;;
4829;SDS011;2429;52.586;14.322;2024-03-07T22:23:50;25.17;;;13.15;;
4829;SDS011;2429;52.586;14.322;2024-03-07T22:28:54;22.85;;;12.00;;
4829;SDS011;2429;52.586;14.322;2024-03-07T22:33:57;29.77;;;14.32;;
4829;SDS011;2429;52.586;14.322;2024-03-07T22:39:02;29.52;;;15.02;;
4829;SDS011;2429;52.586;14.322;2024-03-07T22:44:10;36.05;;;16.27;;
4829;SDS011;2429;52.586;14.322;2024-03-07T22:49:14;24.83;;;13.20;;
4829;SDS011;2429;52.586;14.322;2024-03-07T22:54:22;25.08;;;13.65;;
4829;SDS011;2429;52.586;14.322;2024-03-07T22:59:26;24.33;;;12.35;;
4829;SDS011;2429;52.586;14.322;2024-03-07T23:04:29;19.67;;;10.63;;
4829;SDS011;2429;52.586;14.322;2024-03-07T23:09:34;21.73;;;11.18;;
4829;SDS011;2429;52.586;14.322;2024-03-07T23:14:37;22.77;;;12.32;;
4829;SDS011;2429;52.586;14.322;2024-03-07T23:19:40;19.85;;;11.35;;
4829;SDS011;2429;52.586;14.322;2024-03-07T23:24:45;23.02;;;11.38;;
4829;SDS011;2429;52.586;14.322;2024-03-07T23:29:48;26.25;;;11.68;;
4829;SDS011;2429;52.586;14.322;2024-03-07T23:34:51;20.33;;;11.02;;
4829;SDS011;2429;52.586;14.322;2024-03-07T23:39:58;23.85;;;12.65;;
4829;SDS011;2429;52.586;14.322;2024-03-07T23:45:02;22.48;;;11.15;;
4829;SDS011;2429;52.586;14.322;2024-03-07T23:50:06;25.38;;;12.07;;
4829;SDS011;2429;52.586;14.322;2024-03-07T23:55:14;22.80;;;12.30;;
